Hawaiian Chieftain — WDC8751 — position and weather

sailwx.info

Track history (hours):
 
Tides and Currents Weather Stations Pressure Air Temp Water Temp Dewpoint Dewpoint Depression Visibility Wind Speed Wind Dir Waves Ship Positions

Hawaiian Chieftain (United States)

Operated briefly as "Spirt of Larinda". When she sailed from Sausalito, California, callsign was WAA7737.

Ship's website: http://www.historicalseaport.org/HawaiianChieftain.htm

Owner: GRAYS HARBOR HISTORICAL SEAPORT AUTHORITY, ABERDEEN, WA. More information available from US FCC via Universal Licensing System and Coast Guard Vessel Documentation Center.

Last reported at 2017-Dec-20 21:13 UTC. Time now 2018-Jan-20 07:25 UTC.
Position N 34°00' W 119°16'.
Warning: this ship's position is 30 days out of date.

Length 31 m.

Type: Sailing vessel. MMSI: 367092520.

Date/timePositionNaut miles runAvg speedWind from/ knotsBaromVisibWave heightAir tempDewpointWater temp
2017-Dec-20 21:13N 34°00' W 119°16'3 7.7
2017-Dec-20 20:50N 34°02' W 119°19'3 7.9
2017-Dec-20 20:30N 34°03' W 119°22'5 8.5
2017-Dec-20 19:56N 34°04' W 119°28'6 7.4
2017-Dec-20 19:09N 34°05' W 119°35'2 7.6
2017-Dec-20 18:49N 34°06' W 119°38'2 7.2
2017-Dec-20 18:30N 34°06' W 119°40'3 4.7
2017-Dec-20 17:57N 34°06' W 119°43'2 4.9
2017-Dec-20 17:27N 34°06' W 119°46'3 5.8
2017-Dec-20 16:59N 34°06' W 119°50'3 4.6
2017-Dec-20 16:24N 34°06' W 119°53'3 6.4
2017-Dec-20 16:00N 34°08' W 119°56'5 7.6
2017-Dec-20 15:24N 34°10' W 120°00'4 7.7
2017-Dec-20 14:53N 34°13' W 120°04'3 7.9
2017-Dec-20 14:30N 34°16' W 120°04'3 6.2
2017-Dec-20 13:58N 34°18' W 120°07'4 7.2
2017-Dec-20 13:24N 34°19' W 120°12'3 7.0
2017-Dec-20 12:55N 34°20' W 120°16'3 7.0
2017-Dec-20 12:29N 34°20' W 120°19'4 7.0
2017-Dec-20 11:57N 34°21' W 120°24'3 7.2
2017-Dec-20 11:30N 34°22' W 120°27'4 7.1
2017-Dec-20 10:57N 34°23' W 120°32'3 7.0
2017-Dec-20 10:30N 34°24' W 120°36'3 7.0
2017-Dec-20 10:00N 34°26' W 120°39'6 7.7
2017-Dec-20 09:14N 34°29' W 120°46'4 7.7
2017-Dec-20 08:47N 34°30' W 120°50'8 7.3
2017-Dec-20 07:44N 34°38' W 120°51'4 7.5
2017-Dec-20 07:16N 34°41' W 120°51'4 7.5
2017-Dec-20 06:47N 34°45' W 120°51'3 7.2
2017-Dec-20 06:17N 34°48' W 120°52'3 7.3
2017-Dec-20 05:56N 34°51' W 120°53'4 7.5
2017-Dec-20 05:23N 34°55' W 120°53'4 7.0
2017-Dec-20 04:50N 34°59' W 120°54'  
Track history (hours):
 
Tides and Currents Weather Stations Pressure Air Temp Water Temp Dewpoint Dewpoint Depression Visibility Wind Speed Wind Dir Waves Ship Positions

Hawaiian Chieftain (United States)

Operated briefly as "Spirt of Larinda". When she sailed from Sausalito, California, callsign was WAA7737.

Ship's website: http://www.historicalseaport.org/HawaiianChieftain.htm

Owner: GRAYS HARBOR HISTORICAL SEAPORT AUTHORITY, ABERDEEN, WA. More information available from US FCC via Universal Licensing System and Coast Guard Vessel Documentation Center.

Last reported at 2017-Dec-20 21:13 UTC. Time now 2018-Jan-20 07:25 UTC.
Position N 34°00' W 119°16'.
Warning: this ship's position is 30 days out of date.

Length 31 m.

Type: Sailing vessel. MMSI: 367092520.

Date/timePositionNaut miles runAvg speedWind from/ knotsBaromVisibWave heightAir tempDewpointWater temp
2017-Dec-20 21:13N 34°00' W 119°16'3 7.7
2017-Dec-20 20:50N 34°02' W 119°19'3 7.9
2017-Dec-20 20:30N 34°03' W 119°22'5 8.5
2017-Dec-20 19:56N 34°04' W 119°28'6 7.4
2017-Dec-20 19:09N 34°05' W 119°35'2 7.6
2017-Dec-20 18:49N 34°06' W 119°38'2 7.2
2017-Dec-20 18:30N 34°06' W 119°40'3 4.7
2017-Dec-20 17:57N 34°06' W 119°43'2 4.9
2017-Dec-20 17:27N 34°06' W 119°46'3 5.8
2017-Dec-20 16:59N 34°06' W 119°50'3 4.6
2017-Dec-20 16:24N 34°06' W 119°53'3 6.4
2017-Dec-20 16:00N 34°08' W 119°56'5 7.6
2017-Dec-20 15:24N 34°10' W 120°00'4 7.7
2017-Dec-20 14:53N 34°13' W 120°04'3 7.9
2017-Dec-20 14:30N 34°16' W 120°04'3 6.2
2017-Dec-20 13:58N 34°18' W 120°07'4 7.2
2017-Dec-20 13:24N 34°19' W 120°12'3 7.0
2017-Dec-20 12:55N 34°20' W 120°16'3 7.0
2017-Dec-20 12:29N 34°20' W 120°19'4 7.0
2017-Dec-20 11:57N 34°21' W 120°24'3 7.2
2017-Dec-20 11:30N 34°22' W 120°27'4 7.1
2017-Dec-20 10:57N 34°23' W 120°32'3 7.0
2017-Dec-20 10:30N 34°24' W 120°36'3 7.0
2017-Dec-20 10:00N 34°26' W 120°39'6 7.7
2017-Dec-20 09:14N 34°29' W 120°46'4 7.7
2017-Dec-20 08:47N 34°30' W 120°50'8 7.3
2017-Dec-20 07:44N 34°38' W 120°51'4 7.5
2017-Dec-20 07:16N 34°41' W 120°51'4 7.5
2017-Dec-20 06:47N 34°45' W 120°51'3 7.2
2017-Dec-20 06:17N 34°48' W 120°52'3 7.3
2017-Dec-20 05:56N 34°51' W 120°53'4 7.5
2017-Dec-20 05:23N 34°55' W 120°53'4 7.0
2017-Dec-20 04:50N 34°59' W 120°54'  

Dump ship's entire track history